Etusivu
METAR-TAF:

METAR-TAF

Lentoasemat :

Glencoe Municipal Airport (Vernon Perschau Field)

Glencoe, Minnesota, Yhdysvallat

Leveyspiiri: 44-45-22N, Pituuspiiri: 094-04-52W, korkeus merenpinnasta: 302 m

Tämänhetkinen sää

Tämä raportti tehtiin 21 minuuttia sitten, kello 17.36 UTC
Tuuli 4 kn lännestä
Lämpötila 6°C
Kosteus 75%
Ilmanpaine 1021 hPa
Näkyvyys: 16.1 km
Pilvistä 1500 ft:n korkeudessa

METAR: KGYL 161736Z AUTO 28004KT 10SM OVC015 06/02 A3014 RMK AO2 T00570022

Aika: 12:57 (17:57 UTC)


TAF: puuttuu

Säähavainnot ja -ennusteet yli 4000 lentoasemalta (METAR- ja TAF-raportit).

Käytössä olevat sääasemat on merkitty karttaan keltaisilla ja punaisilla pisteillä.

Aseta hiiri pisteen päälle nähdäksesi sääaseman nimen.

Klikkaa sitten nähdäksesi säähavainnot ja -ennusteet.

Kartan vaihtaminen: klikkaa mustalla rastilla varustettuja vihreitä pisteitä, niin voit zoomata sisään; viivalla varustettua vihreää pistettä, niin voit zoomata ulos tai vihreitä nuolia, niin pääset viereisille kartoille.


METAR-TAF: